Current Weather

Mount Isa

Mount Isa, Australia (YBMA)

Report from: Sunday, February 5, 2023 3:30 PM AEDT
Current time: Sunday, February 5, 2023 4:22 PM AEDT

Nearby weather
Weather history
Weather forecast

Temperature35.0°C (95.0°F)
Heat index34.0°C (93.3°F)
Dew point13.0°C (55.4°F)
Winds 12 kts (6.2 m/s, 13.8 mph) South-Southeast (150°)
Visibility6.2 mi. (10 km)
Clouds Scattered clouds 10,000 ft. (3,048 m)
Altimeter29.74 in.Hg (1007 mB)
Relative humidity27 %
Density altitude2,689 ft. (819 m)
Remarks Fully automated report
Flight conditions Visual Meteorological Conditions
Raw dataYBMA 050430Z AUTO 15012KT 9999 // SCT100 35/13 Q1007 RF00.0/000.0
An unhandled exception has occurred. See browser dev tools for details. Reload 🗙